Time;durP1;ratioP1;P1;durP2;ratioP2;P2;SDS_P1;SDS_P2;PMS_P1;PMS_P2;Temp;Humidity;BMP_temperature;BMP_pressure;BME280_temperature;BME280_humidity;BME280_pressure;Samples;Min_cycle;Max_cycle;Signal;HPM_P1;HPM_P2
2023/05/21 00:02:17;;;;;;;4.65;2.78;;;14.60;99.90;;;;;;5016973;28;20048;-71
2023/05/21 00:04:46;;;;;;;4.10;2.53;;;14.50;99.90;;;;;;5017004;28;20081;-72
2023/05/21 00:07:12;;;;;;;3.60;2.42;;;14.50;99.90;;;;;;5016982;28;20398;-71
2023/05/21 00:09:38;;;;;;;4.03;2.83;;;14.40;99.90;;;;;;5017678;28;20052;-72
2023/05/21 00:12:07;;;;;;;3.40;2.70;;;14.40;99.90;;;;;;5016938;28;20617;-72
2023/05/21 00:14:34;;;;;;;4.82;2.85;;;14.50;99.90;;;;;;5017083;28;20041;-72
2023/05/21 00:16:59;;;;;;;3.00;2.20;;;14.40;99.90;;;;;;5018042;28;20390;-72
2023/05/21 00:19:25;;;;;;;3.97;2.88;;;14.40;99.90;;;;;;5018521;28;20046;-71
2023/05/21 00:21:52;;;;;;;4.13;2.72;;;14.30;99.90;;;;;;5018904;28;20379;-72
2023/05/21 00:24:17;;;;;;;4.43;2.80;;;14.30;99.90;;;;;;5017672;28;20086;-72
2023/05/21 00:26:43;;;;;;;4.57;2.83;;;14.30;99.90;;;;;;5016562;28;20085;-71
2023/05/21 00:29:09;;;;;;;4.78;3.00;;;14.30;99.90;;;;;;5016630;28;20104;-72
2023/05/21 00:31:34;;;;;;;4.80;2.95;;;14.30;99.90;;;;;;5016500;28;20084;-72
2023/05/21 00:34:00;;;;;;;4.28;2.95;;;14.30;99.90;;;;;;5015731;28;20046;-72
2023/05/21 00:36:26;;;;;;;3.90;3.25;;;14.30;99.90;;;;;;5016948;28;20100;-72
2023/05/21 00:38:52;;;;;;;4.35;2.78;;;14.30;99.90;;;;;;5016554;28;20467;-72
2023/05/21 00:41:18;;;;;;;4.15;2.65;;;14.30;99.90;;;;;;5016384;28;20398;-72
2023/05/21 00:43:44;;;;;;;3.95;2.80;;;14.20;99.90;;;;;;5016873;28;20368;-71
2023/05/21 00:46:15;;;;;;;4.65;2.60;;;14.20;99.90;;;;;;5016217;28;20073;-72
2023/05/21 00:48:42;;;;;;;4.28;2.72;;;14.10;99.90;;;;;;5016846;28;20057;-72
2023/05/21 00:51:08;;;;;;;3.83;3.05;;;14.00;99.90;;;;;;5016942;28;20408;-72
2023/05/21 00:53:34;;;;;;;4.32;3.00;;;14.00;99.90;;;;;;5016956;28;20054;-71
2023/05/21 00:56:01;;;;;;;4.40;2.88;;;13.90;99.90;;;;;;5015997;28;20128;-71
2023/05/21 00:58:28;;;;;;;4.35;2.90;;;13.90;99.90;;;;;;5015538;28;20494;-72
2023/05/21 01:00:57;;;;;;;5.63;3.17;;;13.80;99.90;;;;;;5015895;28;20184;-72
2023/05/21 01:03:22;;;;;;;4.35;2.72;;;13.80;99.90;;;;;;5015776;28;20174;-72
2023/05/21 01:05:58;;;;;;;5.90;3.40;;;13.80;99.90;;;;;;5014683;28;20466;-72
2023/05/21 01:08:26;;;;;;;4.30;2.92;;;13.80;99.90;;;;;;5015702;28;20056;-72
2023/05/21 01:10:53;;;;;;;4.55;3.00;;;13.80;99.90;;;;;;5015822;28;20056;-71
2023/05/21 01:13:22;;;;;;;4.40;3.10;;;13.80;99.90;;;;;;5015743;28;20054;-72
2023/05/21 01:15:49;;;;;;;5.13;3.13;;;13.80;99.90;;;;;;5016267;28;20045;-72
2023/05/21 01:18:15;;;;;;;4.30;3.10;;;13.80;99.90;;;;;;5015637;28;20049;-72
2023/05/21 01:20:43;;;;;;;6.35;3.38;;;13.80;99.90;;;;;;5015497;28;20053;-71
2023/05/21 01:23:10;;;;;;;4.03;2.67;;;13.80;99.90;;;;;;5015576;28;20135;-71
2023/05/21 01:25:35;;;;;;;5.45;3.72;;;13.90;99.90;;;;;;5015239;28;20045;-72
2023/05/21 01:28:01;;;;;;;3.92;3.20;;;13.90;99.90;;;;;;5015276;28;20104;-71
2023/05/21 01:30:27;;;;;;;4.93;3.15;;;13.90;99.90;;;;;;5015497;28;20046;-71
2023/05/21 01:33:01;;;;;;;5.88;3.38;;;13.90;99.90;;;;;;5015333;28;20112;-72
2023/05/21 01:35:34;;;;;;;7.25;3.33;;;13.90;99.90;;;;;;5015332;28;20120;-72
2023/05/21 01:38:25;;;;;;;4.43;3.25;;;13.90;99.90;;;;;;5015293;28;20046;-72
2023/05/21 01:41:07;;;;;;;4.63;3.47;;;13.90;99.90;;;;;;5014575;28;20052;-72
2023/05/21 01:43:37;;;;;;;7.13;3.50;;;14.00;99.90;;;;;;5014069;28;20050;-72
2023/05/21 01:46:05;;;;;;;5.43;3.45;;;13.90;99.90;;;;;;5015129;28;20089;-72
2023/05/21 01:48:31;;;;;;;5.07;3.05;;;13.90;99.90;;;;;;5015633;28;20411;-72
2023/05/21 01:50:59;;;;;;;5.10;3.00;;;13.90;99.90;;;;;;5015532;28;20103;-72
2023/05/21 01:53:24;;;;;;;5.53;3.58;;;13.80;99.90;;;;;;5014996;28;20165;-72
2023/05/21 01:55:50;;;;;;;5.55;3.10;;;13.80;99.90;;;;;;5014324;28;20085;-72
2023/05/21 01:58:17;;;;;;;5.95;3.45;;;13.80;99.90;;;;;;5014914;28;20132;-70
2023/05/21 02:00:44;;;;;;;5.38;3.10;;;13.90;99.90;;;;;;5014819;28;20081;-70
2023/05/21 02:03:12;;;;;;;4.55;2.95;;;13.80;99.90;;;;;;5014521;28;20434;-70
2023/05/21 02:05:38;;;;;;;4.32;3.20;;;13.80;99.90;;;;;;5015583;28;20137;-70
2023/05/21 02:08:04;;;;;;;4.57;3.17;;;13.80;99.90;;;;;;5014796;28;20085;-70
2023/05/21 02:10:30;;;;;;;4.65;3.35;;;13.80;99.90;;;;;;5015222;28;20096;-70
2023/05/21 02:12:55;;;;;;;6.55;3.67;;;13.80;99.90;;;;;;5015223;28;20045;-70
2023/05/21 02:15:21;;;;;;;4.72;3.38;;;13.80;99.90;;;;;;5014341;28;20045;-70
2023/05/21 02:17:50;;;;;;;4.00;3.03;;;13.80;99.90;;;;;;5014605;28;20050;-70
2023/05/21 02:20:16;;;;;;;5.10;3.28;;;13.80;99.90;;;;;;5014431;28;20042;-70
2023/05/21 02:22:43;;;;;;;6.05;3.38;;;13.80;99.90;;;;;;5015007;28;20061;-70
2023/05/21 02:25:10;;;;;;;5.10;3.05;;;13.70;99.90;;;;;;5014408;28;20050;-70
2023/05/21 02:27:37;;;;;;;5.93;3.65;;;13.70;99.90;;;;;;5014929;28;20049;-70
2023/05/21 02:30:05;;;;;;;5.78;3.30;;;13.70;99.90;;;;;;5014984;28;20054;-70
2023/05/21 02:32:31;;;;;;;6.30;3.78;;;13.70;99.90;;;;;;5014290;28;20184;-70
2023/05/21 02:34:57;;;;;;;5.05;3.30;;;13.70;99.90;;;;;;5014237;28;20088;-70
2023/05/21 02:37:26;;;;;;;4.72;3.60;;;13.70;99.90;;;;;;5014274;28;20525;-70
2023/05/21 02:39:53;;;;;;;4.60;3.92;;;13.70;99.90;;;;;;5013266;28;20125;-70
2023/05/21 02:42:19;;;;;;;5.82;3.50;;;13.60;99.90;;;;;;5014159;28;20054;-72
2023/05/21 02:44:45;;;;;;;5.65;3.83;;;13.60;99.90;;;;;;5014151;28;20068;-72
2023/05/21 02:47:11;;;;;;;5.93;3.50;;;13.60;99.90;;;;;;5014076;28;20050;-72
2023/05/21 02:49:37;;;;;;;5.75;3.60;;;13.60;99.90;;;;;;5013153;28;20483;-72
2023/05/21 02:52:03;;;;;;;5.00;3.50;;;13.60;99.90;;;;;;5014030;28;20046;-73
2023/05/21 02:54:29;;;;;;;5.65;3.40;;;13.60;99.90;;;;;;5014031;28;20054;-72
2023/05/21 02:56:55;;;;;;;6.35;3.85;;;13.60;99.90;;;;;;5012997;28;20046;-72
2023/05/21 02:59:21;;;;;;;5.68;3.95;;;13.60;99.90;;;;;;5014195;28;20433;-72
2023/05/21 03:01:46;;;;;;;7.50;3.70;;;13.60;99.90;;;;;;5013937;28;20052;-72
2023/05/21 03:04:12;;;;;;;4.40;3.40;;;13.60;99.90;;;;;;5012947;28;20046;-72
2023/05/21 03:06:38;;;;;;;5.00;3.65;;;13.60;99.90;;;;;;5013887;28;20081;-72
2023/05/21 03:09:04;;;;;;;5.38;4.07;;;13.60;99.90;;;;;;5014155;28;20053;-72
2023/05/21 03:11:31;;;;;;;5.55;3.72;;;13.60;99.90;;;;;;5013798;28;20061;-72
2023/05/21 03:13:56;;;;;;;5.13;3.60;;;13.50;99.90;;;;;;5013861;28;20053;-72
2023/05/21 03:16:22;;;;;;;6.28;3.70;;;13.50;99.90;;;;;;5013758;28;20120;-72
2023/05/21 03:18:48;;;;;;;7.07;4.28;;;13.50;99.90;;;;;;5013780;28;20049;-72
2023/05/21 03:21:14;;;;;;;6.50;3.92;;;13.60;99.90;;;;;;5014305;28;20053;-72
2023/05/21 03:23:41;;;;;;;5.15;3.83;;;13.50;99.90;;;;;;5013723;28;20169;-72
2023/05/21 03:26:07;;;;;;;5.43;3.92;;;13.50;99.90;;;;;;5014193;28;20060;-70
2023/05/21 03:28:34;;;;;;;5.18;3.47;;;13.50;99.90;;;;;;5015664;28;20149;-70
2023/05/21 03:31:00;;;;;;;6.65;3.88;;;13.50;99.90;;;;;;5017694;28;20057;-70
2023/05/21 03:33:26;;;;;;;6.68;4.07;;;13.50;99.90;;;;;;5018085;28;20037;-70
2023/05/21 03:35:51;;;;;;;6.90;3.95;;;13.50;99.90;;;;;;5017521;28;20061;-70
2023/05/21 03:38:17;;;;;;;5.13;3.80;;;13.50;99.90;;;;;;5017792;28;20048;-70
2023/05/21 03:40:43;;;;;;;6.47;4.20;;;13.50;99.90;;;;;;5016222;28;20046;-70
2023/05/21 03:43:08;;;;;;;7.28;4.82;;;13.50;99.90;;;;;;5016500;28;20505;-70
2023/05/21 03:45:34;;;;;;;7.03;3.90;;;13.50;99.90;;;;;;5000130;28;20479;-71
2023/05/21 03:48:00;;;;;;;5.65;4.00;;;13.50;99.90;;;;;;5017425;28;20056;-70
2023/05/21 03:50:26;;;;;;;6.00;4.20;;;13.50;99.90;;;;;;5016783;28;20057;-70
2023/05/21 03:52:52;;;;;;;7.22;4.05;;;13.50;99.90;;;;;;5016420;28;20045;-70
2023/05/21 03:55:18;;;;;;;5.93;3.60;;;13.50;99.90;;;;;;5017722;28;20426;-70
2023/05/21 03:57:43;;;;;;;7.00;3.75;;;13.50;99.90;;;;;;5017343;28;20048;-70
2023/05/21 04:00:09;;;;;;;5.85;4.05;;;13.50;99.90;;;;;;5015833;28;20046;-71
2023/05/21 04:02:35;;;;;;;6.25;3.80;;;13.40;99.90;;;;;;5016914;28;20045;-71
2023/05/21 04:05:02;;;;;;;6.70;3.83;;;13.40;99.90;;;;;;5016714;28;20125;-70
2023/05/21 04:07:28;;;;;;;6.88;3.83;;;13.40;99.90;;;;;;5016699;28;20050;-70
2023/05/21 04:09:54;;;;;;;6.57;4.18;;;13.40;99.90;;;;;;5017023;28;20046;-71
2023/05/21 04:12:21;;;;;;;6.00;4.35;;;13.40;99.90;;;;;;5016788;28;20049;-70
2023/05/21 04:14:46;;;;;;;6.40;3.70;;;13.40;99.90;;;;;;5017495;28;20046;-71
2023/05/21 04:17:12;;;;;;;6.18;3.80;;;13.40;99.90;;;;;;5016666;28;20048;-70
2023/05/21 04:19:38;;;;;;;7.28;3.97;;;13.40;99.90;;;;;;5016602;28;20038;-70
2023/05/21 04:22:04;;;;;;;7.25;4.07;;;13.40;99.90;;;;;;5016628;28;20038;-70
2023/05/21 04:24:30;;;;;;;6.50;4.07;;;13.40;99.90;;;;;;5016709;28;20502;-70
2023/05/21 04:27:00;;;;;;;5.82;3.22;;;13.40;99.90;;;;;;5016468;28;20140;-70
2023/05/21 04:29:26;;;;;;;5.88;3.90;;;13.40;99.90;;;;;;5016809;28;20372;-70
2023/05/21 04:31:52;;;;;;;5.22;4.22;;;13.40;99.90;;;;;;5016743;28;20052;-70
2023/05/21 04:34:17;;;;;;;6.90;3.70;;;13.40;99.90;;;;;;5016114;28;20562;-70
2023/05/21 04:36:46;;;;;;;5.45;3.65;;;13.40;99.90;;;;;;5017242;28;20129;-70
2023/05/21 04:39:13;;;;;;;5.88;3.80;;;13.40;99.90;;;;;;5015139;28;20450;-70
2023/05/21 04:41:39;;;;;;;6.28;3.55;;;13.40;99.90;;;;;;5016363;28;20054;-70
2023/05/21 04:44:08;;;;;;;6.53;3.53;;;13.40;99.90;;;;;;5016287;28;20511;-70
2023/05/21 04:46:34;;;;;;;6.32;3.92;;;13.40;99.90;;;;;;5016303;28;20049;-71
2023/05/21 04:49:03;;;;;;;5.03;3.58;;;13.40;99.90;;;;;;5016227;28;20099;-71
2023/05/21 04:51:30;;;;;;;4.57;3.17;;;13.40;99.90;;;;;;5016762;28;20378;-70
2023/05/21 04:53:56;;;;;;;7.15;3.63;;;13.40;99.90;;;;;;5016167;28;20133;-70
2023/05/21 04:56:28;;;;;;;5.93;3.97;;;13.40;99.90;;;;;;5016104;28;20048;-70
2023/05/21 04:58:54;;;;;;;4.90;3.33;;;13.40;99.90;;;;;;5016799;28;20042;-70
2023/05/21 05:01:24;;;;;;;9.00;3.58;;;13.50;99.90;;;;;;5015082;28;20052;-70
2023/05/21 05:03:50;;;;;;;4.75;3.28;;;13.50;99.90;;;;;;5016002;28;20045;-70
2023/05/21 05:06:16;;;;;;;6.10;3.63;;;13.50;99.90;;;;;;5015973;28;20050;-70
2023/05/21 05:08:43;;;;;;;5.50;3.40;;;13.50;99.90;;;;;;5016391;28;20050;-70
2023/05/21 05:11:08;;;;;;;6.57;3.28;;;13.50;99.90;;;;;;5017479;28;20049;-71
2023/05/21 05:13:34;;;;;;;5.97;3.00;;;13.50;99.90;;;;;;5018414;28;20384;-71
2023/05/21 05:16:00;;;;;;;3.95;2.85;;;13.50;99.90;;;;;;5017229;28;20054;-70
2023/05/21 05:18:26;;;;;;;6.88;3.63;;;13.50;99.90;;;;;;5015693;28;20053;-71
2023/05/21 05:20:51;;;;;;;5.55;3.55;;;13.60;99.90;;;;;;5015844;28;20042;-70
2023/05/21 05:23:18;;;;;;;5.20;3.33;;;13.60;99.90;;;;;;5015587;28;20050;-71
2023/05/21 05:25:43;;;;;;;5.55;3.25;;;13.60;99.90;;;;;;5015366;28;20124;-71
2023/05/21 05:28:09;;;;;;;6.15;3.42;;;13.60;99.90;;;;;;5014155;28;20076;-73
2023/05/21 05:30:35;;;;;;;5.13;3.70;;;13.60;99.90;;;;;;5016303;28;20084;-72
2023/05/21 05:33:00;;;;;;;6.63;3.00;;;13.60;99.90;;;;;;4998873;28;20370;-73
2023/05/21 05:35:26;;;;;;;5.45;3.30;;;13.70;99.90;;;;;;5015386;28;20046;-72
2023/05/21 05:37:52;;;;;;;5.85;3.03;;;13.70;99.90;;;;;;5015391;28;20077;-73
2023/05/21 05:40:17;;;;;;;5.47;3.20;;;13.80;99.90;;;;;;5015819;28;20045;-73
2023/05/21 05:42:43;;;;;;;5.55;3.08;;;13.80;99.90;;;;;;5015269;28;20061;-73
2023/05/21 05:45:10;;;;;;;5.15;3.30;;;13.80;99.90;;;;;;5015230;28;20048;-73
2023/05/21 05:47:35;;;;;;;5.53;2.97;;;13.80;99.90;;;;;;5015100;28;20077;-73
2023/05/21 05:50:01;;;;;;;6.25;3.08;;;13.80;99.90;;;;;;5014770;28;20080;-73
2023/05/21 05:52:27;;;;;;;4.20;2.88;;;13.90;99.90;;;;;;5014991;28;20042;-72
2023/05/21 05:54:53;;;;;;;6.05;3.38;;;13.80;99.90;;;;;;5014696;28;20038;-66
2023/05/21 05:57:18;;;;;;;5.78;2.92;;;13.90;99.90;;;;;;5015023;28;20104;-65
2023/05/21 05:59:44;;;;;;;4.78;3.00;;;13.90;99.90;;;;;;5014855;28;20143;-65
2023/05/21 06:02:10;;;;;;;5.43;2.60;;;13.90;99.90;;;;;;5014762;28;20058;-65
2023/05/21 06:04:36;;;;;;;4.85;2.88;;;14.00;99.90;;;;;;5014863;28;20144;-65
2023/05/21 06:07:01;;;;;;;6.15;2.75;;;14.10;99.90;;;;;;5014789;28;20100;-65
2023/05/21 06:09:27;;;;;;;5.38;3.25;;;14.10;99.90;;;;;;5014735;28;20126;-65
2023/05/21 06:11:53;;;;;;;4.95;2.80;;;14.20;99.90;;;;;;5014945;28;20143;-65
2023/05/21 06:14:19;;;;;;;5.88;2.70;;;14.30;99.90;;;;;;5014678;28;20129;-65
2023/05/21 06:16:45;;;;;;;4.10;2.88;;;14.30;99.90;;;;;;5014664;28;20046;-65
2023/05/21 06:19:10;;;;;;;5.35;3.10;;;14.40;99.90;;;;;;5014560;28;20049;-65
2023/05/21 06:21:36;;;;;;;3.80;2.55;;;14.50;99.90;;;;;;5014857;28;20104;-65
2023/05/21 06:24:02;;;;;;;4.57;2.47;;;14.50;99.90;;;;;;5014507;28;20049;-65
2023/05/21 06:26:27;;;;;;;4.75;3.30;;;14.60;99.90;;;;;;5014464;28;20129;-65
2023/05/21 06:28:53;;;;;;;6.88;3.13;;;14.60;99.90;;;;;;5014290;28;20080;-65
2023/05/21 06:31:21;;;;;;;4.97;2.90;;;14.70;99.90;;;;;;5014447;28;20111;-65
2023/05/21 06:33:48;;;;;;;4.22;2.80;;;14.70;99.90;;;;;;5013370;28;20045;-65
2023/05/21 06:36:15;;;;;;;5.65;2.78;;;14.80;99.90;;;;;;5014364;28;20104;-65
2023/05/21 06:38:41;;;;;;;5.93;2.85;;;14.80;99.90;;;;;;5014685;28;20049;-65
2023/05/21 06:41:07;;;;;;;5.47;2.60;;;14.90;99.90;;;;;;5014825;28;20054;-65
2023/05/21 06:43:33;;;;;;;4.57;2.70;;;14.90;99.90;;;;;;5015039;28;20046;-65
2023/05/21 06:45:58;;;;;;;4.97;2.33;;;14.90;99.90;;;;;;5014967;28;20348;-65
2023/05/21 06:48:24;;;;;;;4.75;2.90;;;15.00;99.90;;;;;;5014160;28;20044;-65
2023/05/21 06:50:50;;;;;;;3.97;2.65;;;15.00;99.90;;;;;;5014079;28;20051;-65
2023/05/21 06:53:15;;;;;;;6.57;2.80;;;15.10;99.90;;;;;;5014104;28;20056;-65
2023/05/21 06:55:44;;;;;;;3.88;2.50;;;15.00;99.90;;;;;;5014004;28;20045;-66
2023/05/21 06:58:10;;;;;;;4.88;2.65;;;15.00;99.90;;;;;;5014016;28;20050;-65
2023/05/21 07:00:36;;;;;;;4.50;2.58;;;15.10;99.90;;;;;;5014217;28;20049;-65
2023/05/21 07:03:02;;;;;;;5.65;2.60;;;15.20;99.90;;;;;;5013245;28;20089;-65
2023/05/21 07:05:27;;;;;;;7.25;2.90;;;15.20;99.90;;;;;;5014299;28;20053;-65
2023/05/21 07:07:53;;;;;;;4.18;2.90;;;15.30;99.90;;;;;;5013837;28;20478;-66
2023/05/21 07:10:19;;;;;;;4.50;3.20;;;15.40;99.90;;;;;;5013545;28;20049;-65
2023/05/21 07:12:45;;;;;;;5.05;3.13;;;15.40;99.90;;;;;;5013492;28;20180;-65
2023/05/21 07:15:10;;;;;;;5.05;3.03;;;15.50;99.90;;;;;;5013823;28;20061;-65
2023/05/21 07:17:36;;;;;;;5.30;2.85;;;15.50;99.90;;;;;;5012552;28;20049;-65
2023/05/21 07:20:12;;;;;;;4.15;2.92;;;15.50;99.90;;;;;;5013654;28;20054;-65
2023/05/21 07:22:38;;;;;;;5.13;3.10;;;15.60;99.90;;;;;;5014084;28;20132;-65
2023/05/21 07:25:05;;;;;;;4.70;3.08;;;15.60;99.90;;;;;;5014206;28;20053;-65
2023/05/21 07:27:31;;;;;;;5.78;3.05;;;15.70;99.90;;;;;;5013242;28;20502;-65
2023/05/21 07:29:56;;;;;;;5.13;3.13;;;15.80;99.90;;;;;;5014208;28;20054;-65
2023/05/21 07:32:22;;;;;;;6.07;3.20;;;15.80;99.90;;;;;;5012571;28;20050;-65
2023/05/21 07:34:48;;;;;;;4.30;2.78;;;15.90;99.90;;;;;;5013516;28;20456;-67
2023/05/21 07:37:13;;;;;;;4.40;2.70;;;16.00;99.90;;;;;;5013530;28;20042;-66
2023/05/21 07:39:39;;;;;;;3.97;2.83;;;16.00;99.90;;;;;;5013524;28;20046;-66
2023/05/21 07:42:05;;;;;;;5.78;3.42;;;16.10;99.90;;;;;;5013540;28;20068;-66
2023/05/21 07:44:31;;;;;;;5.82;3.13;;;16.20;99.90;;;;;;5013516;28;20045;-66
2023/05/21 07:46:57;;;;;;;5.40;3.47;;;16.20;99.90;;;;;;5013652;28;20064;-66
2023/05/21 07:49:22;;;;;;;5.53;3.17;;;16.20;99.90;;;;;;5014017;28;20038;-66
2023/05/21 07:51:48;;;;;;;5.93;3.08;;;16.30;99.90;;;;;;5013413;28;20049;-66
2023/05/21 07:54:14;;;;;;;6.38;3.80;;;16.40;99.90;;;;;;5013431;28;20128;-66
2023/05/21 07:56:40;;;;;;;5.63;3.33;;;16.50;99.90;;;;;;5012133;28;20409;-66
2023/05/21 07:59:06;;;;;;;4.18;2.90;;;16.60;99.90;;;;;;5013352;28;20046;-65
2023/05/21 08:01:32;;;;;;;6.30;3.10;;;16.60;99.90;;;;;;5013303;28;20057;-66
2023/05/21 08:04:04;;;;;;;4.95;3.20;;;16.60;99.90;;;;;;5013693;28;20050;-65
2023/05/21 08:06:30;;;;;;;6.50;3.08;;;16.60;99.90;;;;;;5013907;28;20368;-65
2023/05/21 08:08:56;;;;;;;6.78;3.55;;;16.70;99.90;;;;;;5012274;28;20132;-66
2023/05/21 08:11:22;;;;;;;4.97;3.05;;;16.80;99.90;;;;;;5013159;28;20142;-66
2023/05/21 08:13:48;;;;;;;6.00;3.15;;;16.90;99.90;;;;;;5013961;28;20057;-65
2023/05/21 08:16:13;;;;;;;5.20;3.00;;;16.80;99.90;;;;;;5016821;28;20046;-65
2023/05/21 08:18:40;;;;;;;6.00;3.22;;;16.80;99.90;;;;;;5016659;28;20125;-66
2023/05/21 08:21:05;;;;;;;5.68;2.90;;;16.80;99.90;;;;;;5016752;28;20046;-67
2023/05/21 08:23:31;;;;;;;4.50;3.33;;;16.80;99.90;;;;;;5016767;28;20104;-67
2023/05/21 08:25:57;;;;;;;6.22;3.33;;;16.90;99.90;;;;;;5015692;28;20053;-66
2023/05/21 08:28:22;;;;;;;5.40;3.30;;;16.90;99.90;;;;;;5015712;28;20050;-66
2023/05/21 08:30:48;;;;;;;5.57;3.13;;;17.00;99.90;;;;;;5016574;28;20046;-66
2023/05/21 08:33:15;;;;;;;4.63;2.83;;;17.10;99.90;;;;;;5016986;28;20100;-66
2023/05/21 08:35:41;;;;;;;3.85;2.60;;;17.20;99.90;;;;;;5017022;28;20050;-66
2023/05/21 08:38:07;;;;;;;4.93;3.03;;;17.30;99.90;;;;;;5016480;28;20042;-65
2023/05/21 08:40:33;;;;;;;5.95;3.60;;;17.40;99.90;;;;;;5016327;28;20038;-65
2023/05/21 08:43:00;;;;;;;5.50;3.55;;;17.60;99.90;;;;;;5016383;28;20042;-66
2023/05/21 08:45:30;;;;;;;5.20;3.40;;;17.80;99.90;;;;;;5015322;28;20535;-65
2023/05/21 08:47:57;;;;;;;6.22;3.67;;;18.00;99.90;;;;;;5016502;28;20497;-67
2023/05/21 08:50:25;;;;;;;6.05;3.47;;;18.00;99.90;;;;;;5015870;28;20486;-67
2023/05/21 08:52:51;;;;;;;5.07;3.22;;;18.30;99.90;;;;;;5016147;28;20057;-66
2023/05/21 08:55:17;;;;;;;5.95;3.50;;;18.50;99.90;;;;;;5016060;28;20053;-67
2023/05/21 08:57:44;;;;;;;4.45;3.30;;;18.60;99.90;;;;;;5015771;28;20045;-66
2023/05/21 09:00:10;;;;;;;5.28;3.50;;;18.80;99.90;;;;;;5015986;28;20050;-66
2023/05/21 09:02:39;;;;;;;7.30;3.70;;;19.00;99.90;;;;;;5015007;28;20440;-66
2023/05/21 09:05:07;;;;;;;5.10;3.80;;;19.10;99.90;;;;;;5015930;28;20092;-64
2023/05/21 09:07:38;;;;;;;5.65;3.55;;;19.30;99.90;;;;;;5015868;28;20045;-64
2023/05/21 09:10:08;;;;;;;7.20;3.83;;;19.50;99.90;;;;;;5015831;28;20120;-64
2023/05/21 09:12:34;;;;;;;6.55;4.00;;;19.70;99.90;;;;;;5015831;28;20049;-64
2023/05/21 09:15:00;;;;;;;5.93;3.65;;;19.80;99.90;;;;;;5016310;28;20134;-64
2023/05/21 09:17:26;;;;;;;6.65;3.60;;;19.90;99.90;;;;;;5015178;28;20045;-64
2023/05/21 09:20:14;;;;;;;5.38;3.72;;;20.00;99.90;;;;;;5014777;28;20049;-65
2023/05/21 09:22:42;;;;;;;6.78;3.97;;;20.10;99.90;;;;;;5015583;28;20049;-64
2023/05/21 09:25:13;;;;;;;7.85;4.32;;;20.10;99.90;;;;;;5015178;28;20053;-64
2023/05/21 09:27:39;;;;;;;6.20;3.50;;;20.00;99.90;;;;;;5015873;28;20085;-64
2023/05/21 09:30:10;;;;;;;5.63;4.15;;;19.90;99.90;;;;;;5015163;28;20077;-64
2023/05/21 09:32:36;;;;;;;6.20;4.05;;;19.90;99.90;;;;;;5014952;28;20561;-64
2023/05/21 09:35:09;;;;;;;6.43;4.70;;;20.00;99.90;;;;;;5015272;28;20046;-64
2023/05/21 09:37:43;;;;;;;6.35;4.20;;;20.00;99.90;;;;;;5015345;28;20082;-64
2023/05/21 09:40:14;;;;;;;6.53;4.18;;;20.00;99.90;;;;;;5015135;28;20054;-64
2023/05/21 09:42:46;;;;;;;6.20;4.32;;;19.80;99.90;;;;;;5015843;28;20112;-63
2023/05/21 09:45:12;;;;;;;6.68;3.83;;;19.80;99.90;;;;;;5014954;28;20049;-64
2023/05/21 09:47:41;;;;;;;5.82;4.57;;;19.70;99.90;;;;;;5015046;28;20456;-65
2023/05/21 09:50:08;;;;;;;5.32;4.10;;;19.70;99.90;;;;;;5015052;28;20566;-64
2023/05/21 09:52:38;;;;;;;7.13;4.20;;;19.60;99.90;;;;;;5014995;28;20058;-65
2023/05/21 09:55:05;;;;;;;5.90;4.38;;;19.50;99.90;;;;;;5015053;28;20041;-65
2023/05/21 09:57:31;;;;;;;6.43;5.10;;;19.50;99.90;;;;;;5014921;28;20127;-65
2023/05/21 09:59:57;;;;;;;7.03;4.45;;;19.60;99.90;;;;;;5014579;28;20046;-65
2023/05/21 10:02:23;;;;;;;6.13;4.32;;;19.50;99.90;;;;;;5014790;28;20073;-65
2023/05/21 10:04:50;;;;;;;5.93;4.75;;;19.50;99.90;;;;;;5015246;28;20038;-65
2023/05/21 10:07:24;;;;;;;8.57;4.72;;;19.50;99.90;;;;;;5015425;28;20046;-64
2023/05/21 10:09:56;;;;;;;7.03;4.97;;;19.70;99.90;;;;;;5015264;28;20057;-64
2023/05/21 10:12:24;;;;;;;5.80;4.85;;;19.80;99.90;;;;;;5015584;28;20050;-65
2023/05/21 10:15:08;;;;;;;6.68;4.93;;;19.90;99.90;;;;;;5015228;28;20351;-65
2023/05/21 10:17:34;;;;;;;6.80;4.85;;;20.00;99.90;;;;;;5014578;28;20121;-65
2023/05/21 10:20:01;;;;;;;6.60;4.90;;;20.20;99.90;;;;;;5014418;28;20550;-65
2023/05/21 10:22:27;;;;;;;6.38;5.10;;;20.30;99.90;;;;;;5015043;28;20423;-64
2023/05/21 10:24:53;;;;;;;7.47;5.50;;;20.50;99.90;;;;;;5014545;28;20046;-65
2023/05/21 10:27:21;;;;;;;7.53;5.10;;;20.80;99.90;;;;;;5014495;28;20132;-64
2023/05/21 10:29:48;;;;;;;6.93;5.50;;;20.90;99.90;;;;;;5014371;28;20054;-64
2023/05/21 10:32:15;;;;;;;9.48;5.75;;;21.00;99.90;;;;;;5015198;28;20375;-64
2023/05/21 10:34:45;;;;;;;7.25;5.55;;;21.20;99.90;;;;;;5013084;28;20053;-64
2023/05/21 10:37:12;;;;;;;7.93;5.63;;;21.40;99.90;;;;;;5013996;28;20085;-64
2023/05/21 10:39:38;;;;;;;6.80;6.10;;;21.40;99.90;;;;;;5014261;28;20038;-64
2023/05/21 10:42:22;;;;;;;6.55;5.65;;;21.60;99.90;;;;;;5014310;28;20462;-65
2023/05/21 10:45:15;;;;;;;8.82;6.43;;;21.80;99.90;;;;;;5014532;28;20050;-65
2023/05/21 10:48:00;;;;;;;8.05;6.07;;;21.90;99.90;;;;;;5014723;28;20446;-64
2023/05/21 10:50:44;;;;;;;7.87;6.30;;;22.00;99.90;;;;;;5014578;28;20081;-65
2023/05/21 10:53:27;;;;;;;7.93;5.60;;;21.90;99.90;;;;;;5014084;28;20042;-65
2023/05/21 10:56:10;;;;;;;9.25;6.07;;;22.00;99.90;;;;;;5014268;28;20049;-64
2023/05/21 10:58:47;;;;;;;7.50;5.78;;;22.10;99.90;;;;;;5014178;28;20498;-65
2023/05/21 11:01:14;;;;;;;8.18;5.60;;;22.30;99.90;;;;;;5014432;28;20054;-64
2023/05/21 11:03:40;;;;;;;8.27;6.43;;;22.40;99.90;;;;;;5013933;28;20057;-64
2023/05/21 11:06:05;;;;;;;8.93;6.75;;;22.60;99.90;;;;;;5013941;28;20053;-65
2023/05/21 11:08:34;;;;;;;9.73;6.40;;;22.70;99.90;;;;;;5014150;28;20050;-65
2023/05/21 11:11:01;;;;;;;11.00;6.80;;;22.90;99.90;;;;;;5013851;28;20060;-65
2023/05/21 11:13:43;;;;;;;9.18;7.53;;;23.10;99.90;;;;;;5013797;28;20056;-65
2023/05/21 11:16:14;;;;;;;13.10;8.88;;;23.20;99.90;;;;;;5014392;28;20410;-64
2023/05/21 11:18:40;;;;;;;10.07;7.22;;;23.40;99.90;;;;;;5013133;28;20054;-65
2023/05/21 11:21:11;;;;;;;7.97;6.50;;;23.50;99.90;;;;;;5012441;28;20395;-65
2023/05/21 11:23:52;;;;;;;8.35;7.07;;;23.50;99.90;;;;;;5014266;28;20121;-65
2023/05/21 11:26:24;;;;;;;9.40;7.57;;;23.50;99.90;;;;;;5013692;28;20046;-66
2023/05/21 11:29:06;;;;;;;10.48;8.63;;;23.50;99.90;;;;;;5013664;28;20505;-65
2023/05/21 11:31:36;;;;;;;10.20;7.93;;;23.50;99.90;;;;;;5013647;28;20054;-65
2023/05/21 11:34:08;;;;;;;8.88;7.15;;;23.60;99.90;;;;;;5013570;28;20050;-65
2023/05/21 11:36:36;;;;;;;9.90;7.53;;;23.80;99.90;;;;;;5013598;28;20049;-65
2023/05/21 11:39:20;;;;;;;11.13;8.25;;;24.00;99.90;;;;;;5012250;28;20046;-65
2023/05/21 11:41:55;;;;;;;9.93;7.65;;;24.30;99.90;;;;;;5014216;28;20156;-65
2023/05/21 11:44:40;;;;;;;9.55;8.10;;;24.40;99.90;;;;;;5013880;28;20050;-65
2023/05/21 11:47:11;;;;;;;10.27;7.70;;;24.40;99.90;;;;;;5013894;28;20050;-65
2023/05/21 11:49:38;;;;;;;9.57;8.30;;;24.60;99.90;;;;;;5015779;28;20746;-65
2023/05/21 11:52:06;;;;;;;9.38;8.30;;;24.80;99.90;;;;;;5017780;28;20046;-65
2023/05/21 11:54:36;;;;;;;9.93;8.82;;;24.90;99.90;;;;;;5017438;28;20487;-66
2023/05/21 11:57:08;;;;;;;11.35;8.45;;;25.00;99.90;;;;;;5016809;28;20508;-65
2023/05/21 11:59:35;;;;;;;11.27;8.48;;;25.10;99.90;;;;;;5017011;28;20053;-65
2023/05/21 12:02:04;;;;;;;11.68;8.80;;;25.20;99.90;;;;;;5017014;28;20057;-65
2023/05/21 12:04:37;;;;;;;9.45;8.07;;;25.30;99.90;;;;;;5017030;28;20048;-65
2023/05/21 12:07:06;;;;;;;11.40;8.27;;;25.40;99.90;;;;;;5016892;28;20092;-65
2023/05/21 12:09:49;;;;;;;10.48;8.75;;;25.50;99.90;;;;;;5017410;28;20040;-65
2023/05/21 12:12:18;;;;;;;10.77;8.90;;;25.60;99.90;;;;;;5016936;28;20046;-65
2023/05/21 12:14:48;;;;;;;9.98;8.70;;;25.60;99.90;;;;;;5016840;28;20049;-65
2023/05/21 12:17:16;;;;;;;10.43;9.00;;;25.70;99.90;;;;;;5016877;28;20057;-66
2023/05/21 12:19:43;;;;;;;10.88;9.02;;;25.70;99.90;;;;;;5016764;28;20061;-65
2023/05/21 12:22:09;;;;;;;11.20;8.98;;;25.80;99.90;;;;;;5016790;28;20053;-65
2023/05/21 12:24:36;;;;;;;10.38;8.88;;;25.80;99.90;;;;;;5016429;28;20053;-65
2023/05/21 12:27:08;;;;;;;11.48;8.63;;;25.90;99.90;;;;;;5016648;28;20050;-65
2023/05/21 12:29:44;;;;;;;13.30;9.95;;;26.00;99.90;;;;;;5016656;28;20058;-65
2023/05/21 12:32:12;;;;;;;11.90;9.38;;;26.20;99.90;;;;;;5016095;28;20056;-66
2023/05/21 12:34:49;;;;;;;11.77;8.88;;;26.30;99.90;;;;;;5015321;28;20053;-65
2023/05/21 12:37:19;;;;;;;10.63;8.95;;;26.60;99.90;;;;;;5017279;28;20088;-65
2023/05/21 12:39:47;;;;;;;11.85;9.80;;;26.80;99.90;;;;;;5016296;28;20042;-65
2023/05/21 12:42:14;;;;;;;10.65;9.13;;;27.00;99.90;;;;;;5016687;28;20056;-65
2023/05/21 12:44:43;;;;;;;10.85;9.07;;;27.00;99.90;;;;;;5017079;28;20391;-65
2023/05/21 12:47:10;;;;;;;11.52;9.60;;;27.20;99.90;;;;;;5016310;28;20046;-65
2023/05/21 12:49:44;;;;;;;10.52;9.32;;;27.20;99.90;;;;;;5016303;28;20046;-65